createdAt,value
2017-08-14T00:01:52.583Z,84.70
2017-08-14T00:04:21.003Z,84.40
2017-08-14T00:06:48.694Z,84.30
2017-08-14T00:09:16.348Z,83.80
2017-08-14T00:11:44.035Z,84.20
2017-08-14T00:14:12.445Z,83.90
2017-08-14T00:16:40.131Z,84.00
2017-08-14T00:19:07.780Z,85.10
2017-08-14T00:21:35.467Z,85.00
2017-08-14T00:24:03.114Z,85.00
2017-08-14T00:26:30.799Z,86.00
2017-08-14T00:28:59.206Z,84.90
2017-08-14T00:31:26.887Z,85.20
2017-08-14T00:33:54.606Z,85.80
2017-08-14T00:36:23.035Z,85.70
2017-08-14T00:38:50.734Z,85.60
2017-08-14T00:41:19.159Z,85.90
2017-08-14T00:43:46.868Z,85.80
2017-08-14T00:46:14.548Z,86.00
2017-08-14T00:48:42.271Z,86.10
2017-08-14T00:51:09.947Z,85.70
2017-08-14T00:53:37.670Z,85.60
2017-08-14T00:56:05.337Z,86.00
2017-08-14T00:58:33.048Z,86.70
2017-08-14T01:01:01.487Z,86.40
2017-08-14T01:03:29.169Z,86.30
2017-08-14T01:05:57.583Z,86.80
2017-08-14T01:08:25.268Z,86.10
2017-08-14T01:10:52.919Z,86.40
2017-08-14T01:13:20.611Z,86.20
2017-08-14T01:15:48.263Z,86.10
2017-08-14T01:18:15.949Z,85.50
2017-08-14T01:20:44.367Z,85.10
2017-08-14T01:23:12.060Z,85.10
2017-08-14T01:25:39.709Z,85.10
2017-08-14T01:28:07.398Z,85.20
2017-08-14T01:30:35.810Z,84.30
2017-08-14T01:33:03.523Z,84.60
2017-08-14T01:35:31.166Z,84.80
2017-08-14T01:37:58.858Z,84.90
2017-08-14T01:40:27.269Z,85.50
2017-08-14T01:42:54.915Z,85.50
2017-08-14T01:45:22.646Z,85.70
2017-08-14T01:47:50.298Z,85.80
2017-08-14T01:50:17.981Z,85.70
2017-08-14T01:52:46.396Z,85.60
2017-08-14T01:55:14.094Z,85.60
2017-08-14T01:57:41.750Z,86.30
2017-08-14T02:00:09.457Z,86.10
2017-08-14T02:02:37.099Z,86.00
2017-08-14T02:05:05.559Z,86.90
2017-08-14T02:07:33.975Z,86.50
2017-08-14T02:10:01.663Z,86.40
2017-08-14T02:12:29.310Z,86.10
2017-08-14T02:14:57.015Z,86.20
2017-08-14T02:17:24.663Z,85.90
2017-08-14T02:19:52.381Z,85.40
2017-08-14T02:22:20.032Z,85.50
2017-08-14T02:24:47.723Z,84.90
2017-08-14T02:27:15.383Z,84.90
2017-08-14T02:29:43.071Z,84.70
2017-08-14T02:32:10.717Z,85.30
2017-08-14T02:34:38.437Z,85.30
2017-08-14T02:37:06.083Z,85.30
2017-08-14T02:39:33.728Z,84.80
2017-08-14T02:42:02.175Z,85.10
2017-08-14T02:44:29.824Z,85.00
2017-08-14T02:46:57.514Z,85.70
2017-08-14T02:49:25.932Z,87.00
2017-08-14T02:51:53.622Z,87.00
2017-08-14T02:54:21.265Z,86.60
2017-08-14T02:56:48.950Z,86.90
2017-08-14T02:59:16.592Z,86.80
2017-08-14T03:01:44.279Z,86.20
2017-08-14T03:04:11.946Z,85.70
2017-08-14T03:06:40.399Z,87.10
2017-08-14T03:09:08.047Z,86.40
2017-08-14T03:11:35.737Z,86.70
2017-08-14T03:14:03.383Z,86.20
2017-08-14T03:16:31.066Z,85.80
2017-08-14T03:18:59.480Z,85.20
2017-08-14T03:21:27.190Z,85.20
2017-08-14T03:23:55.614Z,86.90
2017-08-14T03:26:23.305Z,86.00
2017-08-14T03:28:50.946Z,86.60
2017-08-14T03:31:18.637Z,86.70
2017-08-14T03:33:46.286Z,86.60
2017-08-14T03:36:13.979Z,86.00
2017-08-14T03:38:42.394Z,86.50
2017-08-14T03:41:10.096Z,86.40
2017-08-14T03:43:37.747Z,85.70
2017-08-14T03:46:05.397Z,85.70
2017-08-14T03:48:33.082Z,86.00
2017-08-14T03:51:00.727Z,86.30
2017-08-14T03:53:28.419Z,86.70
2017-08-14T03:55:56.826Z,87.00
2017-08-14T03:58:24.518Z,87.00
2017-08-14T04:00:52.179Z,87.50
2017-08-14T04:03:19.863Z,87.00
2017-08-14T04:05:48.277Z,86.70
2017-08-14T04:08:15.967Z,86.60
2017-08-14T04:10:43.614Z,86.60
2017-08-14T04:13:11.302Z,86.10
2017-08-14T04:15:38.952Z,86.40
2017-08-14T04:18:06.654Z,86.80
2017-08-14T04:20:35.067Z,86.20
2017-08-14T04:23:02.758Z,86.20
2017-08-14T04:25:30.411Z,86.60
2017-08-14T04:27:58.098Z,86.50
2017-08-14T04:30:26.515Z,86.60
2017-08-14T04:32:54.207Z,86.50
2017-08-14T04:35:21.851Z,86.10
2017-08-14T04:37:49.538Z,86.80
2017-08-14T04:40:17.185Z,86.90
2017-08-14T04:42:44.876Z,86.60
2017-08-14T04:45:13.302Z,87.20
2017-08-14T04:47:40.999Z,87.20
2017-08-14T04:50:08.651Z,87.50
2017-08-14T04:52:36.294Z,87.40
2017-08-14T04:55:03.983Z,87.10
2017-08-14T04:57:32.395Z,87.30
2017-08-14T05:00:00.085Z,86.80
2017-08-14T05:02:27.730Z,87.00
2017-08-14T05:04:55.422Z,86.60
2017-08-14T05:07:23.063Z,86.40
2017-08-14T05:09:50.758Z,86.10
2017-08-14T05:12:19.171Z,86.50
2017-08-14T05:14:46.855Z,86.40
2017-08-14T05:17:14.495Z,86.80
2017-08-14T05:19:42.181Z,86.30
2017-08-14T05:22:09.836Z,86.10
2017-08-14T05:24:37.527Z,85.70
2017-08-14T05:27:05.183Z,85.70
2017-08-14T05:29:32.875Z,85.70
2017-08-14T05:32:00.563Z,85.70
2017-08-14T05:34:28.250Z,86.10
2017-08-14T05:36:55.901Z,86.20
2017-08-14T05:39:23.599Z,85.80
2017-08-14T05:41:52.016Z,85.40
2017-08-14T05:44:19.707Z,85.30
2017-08-14T05:46:47.367Z,85.70
2017-08-14T05:49:15.013Z,85.40
2017-08-14T05:51:42.734Z,85.40
2017-08-14T05:54:10.379Z,85.10
2017-08-14T05:56:38.836Z,85.10
2017-08-14T05:59:06.490Z,85.00
2017-08-14T06:01:34.190Z,84.60
2017-08-14T06:04:01.863Z,84.80
2017-08-14T06:06:29.554Z,84.60
2017-08-14T06:08:57.207Z,84.70
2017-08-14T06:11:24.902Z,84.30
2017-08-14T06:13:53.315Z,83.10
2017-08-14T06:16:21.007Z,83.00
2017-08-14T06:18:48.655Z,83.60
2017-08-14T06:21:16.343Z,83.20
2017-08-14T06:23:43.987Z,83.10
2017-08-14T06:26:11.687Z,83.20
2017-08-14T06:28:40.106Z,82.90
2017-08-14T06:31:07.796Z,82.90
2017-08-14T06:33:35.442Z,83.20
2017-08-14T06:36:03.131Z,83.50
2017-08-14T06:38:31.547Z,83.40
2017-08-14T06:40:59.240Z,83.40
2017-08-14T06:43:26.886Z,83.90
2017-08-14T06:45:54.576Z,83.60
2017-08-14T06:48:22.231Z,82.40
2017-08-14T06:50:49.939Z,81.80
2017-08-14T06:53:17.587Z,80.80
2017-08-14T06:55:45.267Z,81.40
2017-08-14T06:58:12.963Z,82.50
2017-08-14T07:00:40.643Z,82.30
2017-08-14T07:03:09.134Z,82.10
2017-08-14T07:05:37.543Z,82.20
2017-08-14T07:08:05.239Z,82.20
2017-08-14T07:10:32.888Z,82.40
2017-08-14T07:13:00.578Z,82.10
2017-08-14T07:15:28.238Z,81.20
2017-08-14T07:17:56.695Z,80.20
2017-08-14T07:20:24.351Z,80.10
2017-08-14T07:22:52.942Z,78.20
2017-08-14T07:25:20.591Z,76.70
2017-08-14T07:27:48.279Z,76.60
2017-08-14T07:30:15.936Z,75.60
2017-08-14T07:32:44.393Z,74.70
2017-08-14T07:35:12.043Z,74.70
2017-08-14T07:37:39.733Z,74.10
2017-08-14T07:40:08.147Z,73.70
2017-08-14T07:42:35.831Z,72.90
2017-08-14T07:45:03.510Z,71.70
2017-08-14T07:47:31.200Z,70.80
2017-08-14T07:49:58.843Z,70.80
2017-08-14T07:52:26.547Z,70.00
2017-08-14T07:54:54.199Z,70.10
2017-08-14T07:57:21.850Z,69.70
2017-08-14T07:59:49.651Z,68.90
2017-08-14T08:02:17.298Z,68.00
2017-08-14T08:04:44.987Z,69.50
2017-08-14T08:07:12.633Z,67.30
2017-08-14T08:09:40.318Z,68.10
2017-08-14T08:12:07.965Z,68.30
2017-08-14T08:14:35.651Z,68.60
2017-08-14T08:17:03.307Z,70.00
2017-08-14T08:19:31.000Z,68.20
2017-08-14T08:21:58.642Z,68.00
2017-08-14T08:24:26.330Z,67.70
2017-08-14T08:26:53.982Z,67.70
2017-08-14T08:29:21.773Z,66.80
2017-08-14T08:31:49.417Z,65.80
2017-08-14T08:34:17.102Z,64.80
2017-08-14T08:36:44.744Z,65.70
2017-08-14T08:39:12.439Z,66.90
2017-08-14T08:41:40.094Z,68.20
2017-08-14T08:44:07.779Z,65.10
2017-08-14T08:46:35.427Z,64.90
2017-08-14T08:49:03.889Z,64.60
2017-08-14T08:51:31.539Z,64.60
2017-08-14T08:53:59.234Z,64.70
2017-08-14T08:56:26.908Z,66.20
2017-08-14T08:58:54.606Z,65.00
2017-08-14T09:01:22.365Z,64.80
2017-08-14T09:03:50.012Z,65.70
2017-08-14T09:06:17.712Z,66.60
2017-08-14T09:08:45.359Z,65.00
2017-08-14T09:11:13.047Z,64.10
2017-08-14T09:13:41.471Z,64.60
2017-08-14T09:16:09.171Z,64.60
2017-08-14T09:18:36.827Z,64.50
2017-08-14T09:21:04.524Z,64.00
2017-08-14T09:23:32.187Z,61.20
2017-08-14T09:25:59.879Z,61.40
2017-08-14T09:28:27.523Z,61.60
2017-08-14T09:30:55.215Z,61.80
2017-08-14T09:33:22.876Z,61.50
2017-08-14T09:35:50.567Z,61.50
2017-08-14T09:38:18.215Z,62.10
2017-08-14T09:40:46.671Z,58.10
2017-08-14T09:43:14.320Z,58.10
2017-08-14T09:45:42.012Z,59.00
2017-08-14T09:48:10.435Z,57.40
2017-08-14T09:50:38.131Z,57.40
2017-08-14T09:53:05.778Z,57.70
2017-08-14T09:55:33.487Z,57.90
2017-08-14T09:58:01.132Z,60.10
2017-08-14T10:00:29.578Z,61.90
2017-08-14T10:02:57.272Z,61.80
2017-08-14T10:05:24.924Z,61.40
2017-08-14T10:07:53.376Z,59.90
2017-08-14T10:10:21.023Z,59.80
2017-08-14T10:12:48.718Z,60.90
2017-08-14T10:15:17.167Z,60.40
2017-08-14T10:17:44.879Z,60.30
2017-08-14T10:20:12.526Z,61.20
2017-08-14T10:22:40.977Z,59.00
2017-08-14T10:25:08.627Z,59.00
2017-08-14T10:27:36.310Z,60.40
2017-08-14T10:30:04.731Z,58.90
2017-08-14T10:32:32.428Z,58.90
2017-08-14T10:35:00.090Z,57.20
2017-08-14T10:37:27.778Z,57.70
2017-08-14T10:39:56.200Z,57.90
2017-08-14T10:42:23.894Z,57.30
2017-08-14T10:44:51.542Z,56.10
2017-08-14T10:47:19.231Z,56.50
2017-08-14T10:49:47.648Z,55.10
2017-08-14T10:52:15.338Z,55.10
2017-08-14T10:54:42.999Z,54.90
2017-08-14T10:57:10.682Z,54.10
2017-08-14T10:59:39.094Z,57.00
2017-08-14T11:02:06.743Z,57.10
2017-08-14T11:04:34.435Z,56.30
2017-08-14T11:07:02.087Z,55.30
2017-08-14T11:09:29.780Z,54.60
2017-08-14T11:11:57.426Z,54.90
2017-08-14T11:14:25.126Z,55.10
2017-08-14T11:16:52.770Z,55.70
2017-08-14T11:19:20.472Z,54.40
2017-08-14T11:21:48.118Z,53.70
2017-08-14T11:24:15.808Z,54.50
2017-08-14T11:26:43.455Z,53.40
2017-08-14T11:29:11.150Z,54.00
2017-08-14T11:31:38.799Z,52.90
2017-08-14T11:34:06.483Z,53.90
2017-08-14T11:36:34.894Z,52.40
2017-08-14T11:39:02.595Z,52.10
2017-08-14T11:41:30.239Z,51.80
2017-08-14T11:43:57.927Z,51.80
2017-08-14T11:46:25.580Z,52.70
2017-08-14T11:48:53.273Z,54.00
2017-08-14T11:51:21.683Z,53.80
2017-08-14T11:53:49.373Z,53.80
2017-08-14T11:56:17.026Z,53.50
2017-08-14T11:58:44.715Z,52.90
2017-08-14T12:01:13.130Z,54.80
2017-08-14T12:03:40.835Z,54.70
2017-08-14T12:06:08.481Z,54.10
2017-08-14T12:08:36.123Z,53.90
2017-08-14T12:11:03.823Z,54.40
2017-08-14T12:13:31.472Z,54.10
2017-08-14T12:15:59.159Z,53.20
2017-08-14T12:18:27.572Z,54.20
2017-08-14T12:20:55.391Z,54.20
2017-08-14T12:23:23.812Z,53.10
2017-08-14T12:25:51.499Z,53.00
2017-08-14T12:28:19.151Z,53.20
2017-08-14T12:30:46.841Z,53.60
2017-08-14T12:33:14.487Z,53.90
2017-08-14T12:35:42.181Z,55.70
2017-08-14T12:38:09.851Z,55.90
2017-08-14T12:40:37.555Z,55.30
2017-08-14T12:43:05.198Z,55.60
2017-08-14T12:45:32.894Z,55.40
2017-08-14T12:48:00.542Z,54.90
2017-08-14T12:50:28.227Z,55.80
2017-08-14T12:52:56.638Z,55.60
2017-08-14T12:55:24.339Z,55.50
2017-08-14T12:57:51.988Z,55.50
2017-08-14T13:00:19.677Z,56.20
2017-08-14T13:02:48.093Z,56.40
2017-08-14T13:05:15.779Z,56.50
2017-08-14T13:07:43.436Z,55.80
2017-08-14T13:10:11.128Z,55.60
2017-08-14T13:12:38.775Z,54.60
2017-08-14T13:15:06.427Z,54.50
2017-08-14T13:17:34.115Z,54.40
2017-08-14T13:20:02.558Z,54.30
2017-08-14T13:22:30.255Z,54.50
2017-08-14T13:24:58.671Z,53.20
2017-08-14T13:27:26.364Z,53.10
2017-08-14T13:29:54.003Z,54.30
2017-08-14T13:32:21.687Z,53.90
2017-08-14T13:34:49.347Z,54.80
2017-08-14T13:37:17.043Z,55.90
2017-08-14T13:39:44.689Z,55.30
2017-08-14T13:42:12.386Z,54.70
2017-08-14T13:44:40.030Z,55.70
2017-08-14T13:47:07.719Z,54.40
2017-08-14T13:49:35.372Z,53.50
2017-08-14T13:52:03.064Z,53.20
2017-08-14T13:54:30.711Z,53.80
2017-08-14T13:56:58.403Z,52.20
2017-08-14T13:59:26.826Z,50.90
2017-08-14T14:01:54.510Z,50.90
2017-08-14T14:04:22.161Z,50.40
2017-08-14T14:06:49.858Z,50.60
2017-08-14T14:09:18.276Z,52.80
2017-08-14T14:11:45.927Z,52.80
2017-08-14T14:14:13.622Z,52.80
2017-08-14T14:16:41.274Z,50.40
2017-08-14T14:19:08.967Z,50.20
2017-08-14T14:21:36.617Z,50.60
2017-08-14T14:24:04.311Z,52.70
2017-08-14T14:26:31.961Z,52.30
2017-08-14T14:29:00.414Z,51.90
2017-08-14T14:31:28.063Z,51.80
2017-08-14T14:33:55.745Z,49.50
2017-08-14T14:36:24.168Z,49.80
2017-08-14T14:38:51.872Z,49.80
2017-08-14T14:41:19.518Z,50.60
2017-08-14T14:43:47.208Z,50.30
2017-08-14T14:46:15.618Z,52.70
2017-08-14T14:48:43.312Z,52.70
2017-08-14T14:51:10.955Z,54.70
2017-08-14T14:53:38.643Z,53.00
2017-08-14T14:56:06.295Z,53.70
2017-08-14T14:58:33.999Z,53.50
2017-08-14T15:01:01.643Z,54.30
2017-08-14T15:03:29.343Z,54.00
2017-08-14T15:05:57.086Z,52.30
2017-08-14T15:08:24.776Z,52.60
2017-08-14T15:10:52.428Z,52.60
2017-08-14T15:13:20.123Z,53.10
2017-08-14T15:15:47.794Z,52.30
2017-08-14T15:18:15.451Z,51.50
2017-08-14T15:20:43.152Z,52.20
2017-08-14T15:23:10.806Z,50.00
2017-08-14T15:25:38.491Z,49.80
2017-08-14T15:28:06.144Z,50.00
2017-08-14T15:30:33.832Z,48.00
2017-08-14T15:33:01.479Z,47.90
2017-08-14T15:35:29.175Z,47.40
2017-08-14T15:37:57.590Z,50.90
2017-08-14T15:40:25.280Z,50.90
2017-08-14T15:42:52.925Z,51.20
2017-08-14T15:45:20.619Z,50.80
2017-08-14T15:47:48.266Z,50.10
2017-08-14T15:50:16.020Z,51.70
2017-08-14T15:52:43.663Z,51.20
2017-08-14T15:55:11.355Z,49.40
2017-08-14T15:57:39.003Z,48.40
2017-08-14T16:00:06.697Z,47.50
2017-08-14T16:02:35.110Z,45.60
2017-08-14T16:05:02.807Z,45.70
2017-08-14T16:07:30.471Z,45.40
2017-08-14T16:09:58.164Z,46.80
2017-08-14T16:12:25.814Z,48.90
2017-08-14T16:14:54.266Z,51.40
2017-08-14T16:17:21.924Z,51.40
2017-08-14T16:19:49.572Z,51.40
2017-08-14T16:22:17.262Z,51.20
2017-08-14T16:24:45.680Z,52.40
2017-08-14T16:27:13.470Z,52.40
2017-08-14T16:29:41.121Z,52.20
2017-08-14T16:32:08.811Z,52.40
2017-08-14T16:34:36.458Z,52.90
2017-08-14T16:37:04.168Z,53.10
2017-08-14T16:39:31.863Z,53.50
2017-08-14T16:41:59.563Z,54.20
2017-08-14T16:44:27.992Z,54.00
2017-08-14T16:46:55.691Z,54.00
2017-08-14T16:49:23.346Z,53.70
2017-08-14T16:51:51.051Z,54.10
2017-08-14T16:54:18.710Z,54.20
2017-08-14T16:56:46.411Z,55.50
2017-08-14T16:59:14.059Z,54.30
2017-08-14T17:01:41.752Z,54.50
2017-08-14T17:04:10.184Z,54.60
2017-08-14T17:06:37.876Z,54.60
2017-08-14T17:09:05.523Z,54.70
2017-08-14T17:11:33.211Z,55.70
2017-08-14T17:14:01.634Z,56.20
2017-08-14T17:19:03.616Z,56.50
2017-08-14T17:21:31.315Z,57.00
2017-08-14T17:23:58.967Z,56.50
2017-08-14T17:26:26.615Z,56.00
2017-08-14T17:28:54.313Z,56.90
2017-08-14T17:31:21.974Z,57.50
2017-08-14T17:33:50.432Z,57.40
2017-08-14T17:36:18.079Z,57.40
2017-08-14T17:38:45.780Z,57.90
2017-08-14T17:41:13.433Z,57.60
2017-08-14T17:43:41.127Z,57.80
2017-08-14T17:46:08.778Z,58.20
2017-08-14T17:48:36.470Z,57.70
2017-08-14T17:51:04.122Z,58.10
2017-08-14T17:53:31.815Z,58.60
2017-08-14T17:56:00.232Z,59.40
2017-08-14T17:58:27.927Z,59.40
2017-08-14T18:00:55.584Z,59.70
2017-08-14T18:03:23.283Z,59.60
2017-08-14T18:05:51.703Z,59.70
2017-08-14T18:08:19.391Z,59.70
2017-08-14T18:10:47.043Z,60.10
2017-08-14T18:13:14.730Z,60.60
2017-08-14T18:15:43.160Z,61.50
2017-08-14T18:18:10.847Z,61.50
2017-08-14T18:20:38.503Z,61.70
2017-08-14T18:23:06.194Z,61.40
2017-08-14T18:25:34.619Z,62.00
2017-08-14T18:28:02.279Z,61.90
2017-08-14T18:30:29.967Z,62.60
2017-08-14T18:32:57.627Z,63.00
2017-08-14T18:35:25.311Z,64.00
2017-08-14T18:37:53.727Z,65.70
2017-08-14T18:40:21.428Z,65.60
2017-08-14T18:42:49.085Z,66.20
2017-08-14T18:45:16.774Z,66.90
2017-08-14T18:47:44.433Z,67.50
2017-08-14T18:50:12.119Z,67.70
2017-08-14T18:52:39.795Z,67.90
2017-08-14T18:55:07.487Z,68.30
2017-08-14T18:57:35.135Z,68.40
2017-08-14T19:00:02.821Z,69.20
2017-08-14T19:02:31.235Z,69.50
2017-08-14T19:04:58.939Z,69.50
2017-08-14T19:07:26.854Z,70.30
2017-08-14T19:09:55.054Z,70.90
2017-08-14T19:12:22.079Z,71.30
2017-08-14T19:14:49.890Z,71.60
2017-08-14T19:17:18.049Z,72.00
2017-08-14T19:19:48.087Z,71.80
2017-08-14T19:22:17.656Z,72.40
2017-08-14T19:24:47.568Z,72.60
2017-08-14T19:27:19.455Z,73.30
2017-08-14T19:29:49.726Z,73.10
2017-08-14T19:32:19.362Z,74.30
2017-08-14T19:34:47.960Z,74.80
2017-08-14T19:37:16.512Z,74.80
2017-08-14T19:39:45.154Z,74.20
2017-08-14T19:42:13.043Z,74.60
2017-08-14T19:44:41.292Z,74.90
2017-08-14T19:47:09.660Z,74.20
2017-08-14T19:49:37.575Z,74.50
2017-08-14T19:52:05.914Z,74.50
2017-08-14T19:54:34.198Z,75.30
2017-08-14T19:57:01.936Z,75.50
2017-08-14T19:59:30.170Z,76.10
2017-08-14T20:01:58.530Z,75.90
2017-08-14T20:04:26.231Z,76.10
2017-08-14T20:06:54.558Z,75.80
2017-08-14T20:09:22.264Z,75.70
2017-08-14T20:11:49.959Z,75.50
2017-08-14T20:14:17.612Z,75.20
2017-08-14T20:16:45.329Z,75.70
2017-08-14T20:19:12.977Z,76.40
2017-08-14T20:21:40.684Z,76.90
2017-08-14T20:24:08.351Z,77.70
2017-08-14T20:26:36.056Z,78.60
2017-08-14T20:29:03.747Z,78.60
2017-08-14T20:31:31.475Z,78.70
2017-08-14T20:33:59.119Z,78.20
2017-08-14T20:36:26.771Z,77.30
2017-08-14T20:38:54.461Z,77.10
2017-08-14T20:41:22.115Z,77.00
2017-08-14T20:43:49.803Z,76.70
2017-08-14T20:46:17.462Z,77.20
2017-08-14T20:48:45.154Z,77.30
2017-08-14T20:51:12.812Z,76.90
2017-08-14T20:53:40.505Z,76.40
2017-08-14T20:56:08.167Z,76.40
2017-08-14T20:58:35.859Z,76.50
2017-08-14T21:01:03.515Z,76.50
2017-08-14T21:03:31.984Z,77.60
2017-08-14T21:05:59.634Z,77.50
2017-08-14T21:08:27.330Z,77.30
2017-08-14T21:10:54.971Z,78.00
2017-08-14T21:13:23.424Z,78.30
2017-08-14T21:15:51.079Z,78.30
2017-08-14T21:18:18.774Z,78.50
2017-08-14T21:20:47.186Z,78.50
2017-08-14T21:23:14.884Z,78.50
2017-08-14T21:25:42.534Z,78.60
2017-08-14T21:28:10.512Z,78.40
2017-08-14T21:30:38.156Z,78.10
2017-08-14T21:33:05.807Z,78.00
2017-08-14T21:35:33.495Z,78.30
2017-08-14T21:38:01.142Z,78.40
2017-08-14T21:40:28.827Z,78.40
2017-08-14T21:42:57.247Z,78.30
2017-08-14T21:45:24.947Z,78.20
2017-08-14T21:47:52.599Z,78.30
2017-08-14T21:50:20.284Z,78.80
2017-08-14T21:52:48.695Z,79.60
2017-08-14T21:55:16.382Z,79.50
2017-08-14T21:57:44.030Z,79.50
2017-08-14T22:00:11.728Z,79.10
2017-08-14T22:02:39.411Z,78.70
2017-08-14T22:05:07.105Z,78.40
2017-08-14T22:07:34.750Z,78.90
2017-08-14T22:10:02.444Z,79.00
2017-08-14T22:12:30.087Z,78.80
2017-08-14T22:14:57.779Z,79.70
2017-08-14T22:17:25.430Z,79.50
2017-08-14T22:19:53.124Z,80.30
2017-08-14T22:22:21.534Z,81.40
2017-08-14T22:24:49.175Z,81.30
2017-08-14T22:27:16.863Z,80.80
2017-08-14T22:29:44.507Z,80.70
2017-08-14T22:32:12.196Z,80.40
2017-08-14T22:34:39.861Z,80.50
2017-08-14T22:37:07.551Z,80.90
2017-08-14T22:39:35.962Z,80.70
2017-08-14T22:42:03.659Z,80.50
2017-08-14T22:44:31.302Z,80.40
2017-08-14T22:46:58.986Z,80.80
2017-08-14T22:49:26.633Z,81.20
2017-08-14T22:51:54.319Z,81.50
2017-08-14T22:54:21.967Z,81.70
2017-08-14T22:56:49.651Z,81.30
2017-08-14T22:59:18.075Z,81.20
2017-08-14T23:01:45.766Z,81.00
2017-08-14T23:04:13.415Z,80.90
2017-08-14T23:06:41.102Z,81.00
2017-08-14T23:09:09.515Z,81.20
2017-08-14T23:11:37.206Z,81.20
2017-08-14T23:14:04.854Z,81.00
2017-08-14T23:16:32.539Z,80.60
2017-08-14T23:19:00.184Z,80.60
2017-08-14T23:21:27.834Z,80.40
2017-08-14T23:23:55.526Z,80.10
2017-08-14T23:26:23.190Z,80.00
2017-08-14T23:28:51.655Z,81.10
2017-08-14T23:31:19.314Z,80.80
2017-08-14T23:33:47.031Z,81.90
2017-08-14T23:36:14.679Z,81.40
2017-08-14T23:38:42.367Z,81.10
2017-08-14T23:41:10.019Z,80.80
2017-08-14T23:43:37.712Z,81.20
2017-08-14T23:46:05.357Z,81.20
2017-08-14T23:48:33.047Z,82.40
2017-08-14T23:51:01.463Z,81.20
2017-08-14T23:53:29.153Z,81.10
2017-08-14T23:55:56.798Z,81.40
2017-08-14T23:58:24.486Z,81.80
